createdAt,value
2022-12-29T08:36:07.595Z,10.09
2022-12-29T08:39:10.274Z,10.29
2022-12-29T08:54:29.151Z,10.44
2022-12-29T08:57:31.752Z,10.61
2022-12-29T09:00:34.373Z,10.78
2022-12-29T09:04:12.981Z,10.92
2022-12-29T09:06:59.423Z,11.10
2022-12-29T09:10:03.366Z,11.13
2022-12-29T09:13:05.930Z,11.11
2022-12-29T09:16:09.380Z,11.15
2022-12-29T09:19:11.925Z,11.15
2022-12-29T09:22:14.522Z,11.15
2022-12-29T09:25:18.588Z,11.11
2022-12-29T09:28:21.301Z,11.18
2022-12-29T09:31:24.158Z,11.19
2022-12-29T09:34:26.761Z,11.19
2022-12-29T09:37:29.659Z,11.16
2022-12-29T09:40:35.321Z,11.24
2022-12-29T09:44:01.153Z,11.42
2022-12-29T09:47:03.927Z,11.38
2022-12-29T09:50:12.846Z,11.52
2022-12-29T09:53:21.524Z,11.59
2022-12-29T09:56:27.316Z,11.57
2022-12-29T09:59:41.967Z,11.67
2022-12-29T10:02:46.381Z,11.65
2022-12-29T10:05:55.109Z,11.67
2022-12-29T10:09:03.838Z,11.88
2022-12-29T10:12:23.265Z,11.91
2022-12-29T10:15:40.481Z,11.90
2022-12-29T10:19:08.652Z,11.82
2022-12-29T10:22:23.171Z,11.76
2022-12-29T10:25:32.871Z,11.72
2022-12-29T10:28:42.308Z,11.62
2022-12-29T10:31:48.189Z,11.58
2022-12-29T10:34:55.892Z,11.59
2022-12-29T10:38:03.604Z,11.56
2022-12-29T10:41:13.752Z,11.60
2022-12-29T10:44:20.599Z,11.65
2022-12-29T10:47:27.640Z,11.69
2022-12-29T10:50:31.390Z,11.85
2022-12-29T10:53:40.879Z,12.19
2022-12-29T10:56:46.125Z,12.66
2022-12-29T10:59:50.010Z,12.77
2022-12-29T11:03:14.118Z,12.85
2022-12-29T11:06:23.985Z,12.77
2022-12-29T11:09:42.003Z,12.74
2022-12-29T11:12:57.129Z,12.49
2022-12-29T11:16:01.919Z,12.42
2022-12-29T11:19:04.963Z,12.57
2022-12-29T11:22:15.931Z,12.49
2022-12-29T11:25:18.605Z,12.40
2022-12-29T11:28:21.097Z,12.43
2022-12-29T11:31:24.940Z,12.39
2022-12-29T11:34:31.929Z,12.46
2022-12-29T11:37:39.972Z,12.45
2022-12-29T11:40:42.680Z,12.41
2022-12-29T11:43:48.550Z,12.24
2022-12-29T11:46:53.908Z,11.96
2022-12-29T11:50:00.601Z,11.72
2022-12-29T11:53:06.341Z,11.36
2022-12-29T11:56:14.398Z,10.89
2022-12-29T11:59:38.936Z,10.59
2022-12-29T12:02:50.059Z,10.38
2022-12-29T12:05:57.706Z,10.29
2022-12-29T12:09:04.651Z,10.09
2022-12-29T12:12:10.891Z,9.99
2022-12-29T12:15:19.880Z,9.89
2022-12-29T12:18:34.263Z,9.80
2022-12-29T12:21:45.370Z,9.74
2022-12-29T12:24:53.931Z,9.74
2022-12-29T12:28:02.052Z,9.60
2022-12-29T12:31:13.594Z,9.60
2022-12-29T12:34:24.442Z,9.56
2022-12-29T12:37:44.816Z,9.58
2022-12-29T12:41:01.490Z,9.69
2022-12-29T12:44:14.260Z,9.68
2022-12-29T12:47:42.278Z,9.63
2022-12-29T12:50:55.400Z,9.48
2022-12-29T12:54:13.655Z,9.61
2022-12-29T12:57:24.308Z,9.77
2022-12-29T13:00:28.886Z,9.97
2022-12-29T13:03:47.217Z,10.17
2022-12-29T13:06:59.048Z,10.19
2022-12-29T13:10:31.251Z,10.24
2022-12-29T13:13:49.756Z,10.22
2022-12-29T13:17:01.829Z,10.22
2022-12-29T13:20:14.517Z,10.30
2022-12-29T13:23:26.748Z,10.41
2022-12-29T13:26:34.641Z,10.60
2022-12-29T13:29:45.394Z,10.60
2022-12-29T13:32:59.002Z,10.50
2022-12-29T13:36:05.834Z,10.53
2022-12-29T13:39:20.633Z,10.60
2022-12-29T13:42:25.804Z,10.63
2022-12-29T13:45:33.326Z,10.63
2022-12-29T13:48:41.695Z,10.65
2022-12-29T13:51:48.643Z,10.47
2022-12-29T13:55:03.136Z,10.54
2022-12-29T13:58:11.409Z,10.57
2022-12-29T14:01:21.093Z,10.47
2022-12-29T14:04:25.513Z,10.11
2022-12-29T14:07:29.053Z,9.91
2022-12-29T14:10:36.384Z,9.86
2022-12-29T14:13:41.775Z,9.88
2022-12-29T14:16:44.715Z,9.98
2022-12-29T14:19:47.714Z,9.96
2022-12-29T14:22:59.906Z,9.91
2022-12-29T14:26:16.290Z,9.89
2022-12-29T14:29:46.364Z,9.82
2022-12-29T14:33:04.381Z,9.69
